createdAt,value
2022-11-20T00:01:40.407Z,97742.41
2022-11-20T00:04:10.034Z,97743.25
2022-11-20T00:06:38.350Z,97742.41
2022-11-20T00:09:07.187Z,97750.09
2022-11-20T00:11:37.301Z,97747.53
2022-11-20T00:14:06.053Z,97741.69
2022-11-20T00:16:35.449Z,97741.78
2022-11-20T00:19:04.388Z,97741.00
2022-11-20T00:21:33.625Z,97744.44
2022-11-20T00:24:02.081Z,97744.44
2022-11-20T00:26:31.287Z,97741.09
2022-11-20T00:29:03.470Z,97735.97
2022-11-20T00:31:34.022Z,97735.03
2022-11-20T00:34:02.297Z,97736.69
2022-11-20T00:36:34.563Z,97736.66
2022-11-20T00:39:02.894Z,97738.38
2022-11-20T00:41:32.327Z,97741.78
2022-11-20T00:44:02.312Z,97732.41
2022-11-20T00:46:31.255Z,97731.59
2022-11-20T00:48:59.957Z,97739.34
2022-11-20T00:51:29.371Z,97746.38
2022-11-20T00:53:58.672Z,97742.97
2022-11-20T00:56:29.614Z,97741.25
2022-11-20T00:59:00.752Z,97737.78
2022-11-20T01:01:31.653Z,97736.06
2022-11-20T01:04:02.103Z,97739.44
2022-11-20T01:06:32.653Z,97736.84
2022-11-20T01:09:04.993Z,97735.97
2022-11-20T01:11:36.192Z,97737.78
2022-11-20T01:14:07.833Z,97743.66
2022-11-20T01:16:40.328Z,97747.13
2022-11-20T01:19:17.497Z,97747.94
2022-11-20T01:21:50.231Z,97755.69
2022-11-20T01:24:21.039Z,97756.44
2022-11-20T01:26:51.652Z,97759.91
2022-11-20T01:29:23.471Z,97753.88
2022-11-20T01:31:54.131Z,97758.25
2022-11-20T01:34:24.244Z,97759.16
2022-11-20T01:36:53.753Z,97765.13
2022-11-20T01:39:26.950Z,97766.94
2022-11-20T01:42:14.232Z,97766.09
2022-11-20T01:44:56.943Z,97765.38
2022-11-20T01:47:34.066Z,97760.28
2022-11-20T01:50:08.239Z,97757.75
2022-11-20T01:52:43.214Z,97756.09
2022-11-20T01:55:16.670Z,97760.28
2022-11-20T01:57:47.726Z,97753.50
2022-11-20T02:00:19.604Z,97748.25
2022-11-20T02:02:55.872Z,97754.19
2022-11-20T02:05:31.162Z,97742.25
2022-11-20T02:08:01.284Z,97748.13
2022-11-20T02:10:30.559Z,97751.53
2022-11-20T02:13:16.727Z,97755.03
2022-11-20T02:15:45.583Z,97756.94
2022-11-20T02:18:18.729Z,97763.84
2022-11-20T02:20:50.032Z,97759.84
2022-11-20T02:23:26.789Z,97766.50
2022-11-20T02:25:57.831Z,97765.72
2022-11-20T02:28:26.807Z,97768.28
2022-11-20T02:30:55.127Z,97759.84
2022-11-20T02:33:23.402Z,97759.84
2022-11-20T02:35:51.918Z,97759.97
2022-11-20T02:38:20.522Z,97757.50
2022-11-20T02:40:54.107Z,97755.97
2022-11-20T02:43:25.241Z,97760.75
2022-11-20T02:45:53.582Z,97762.50
2022-11-20T02:48:23.666Z,97754.09
2022-11-20T02:50:53.763Z,97764.16
2022-11-20T02:53:22.085Z,97768.28
2022-11-20T02:55:50.311Z,97750.94
2022-11-20T02:58:18.716Z,97751.88
2022-11-20T03:00:48.344Z,97752.91
2022-11-20T03:03:16.624Z,97751.09
2022-11-20T03:05:44.940Z,97759.59
2022-11-20T03:08:13.237Z,97757.03
2022-11-20T03:10:41.515Z,97761.28
2022-11-20T03:13:09.964Z,97756.94
2022-11-20T03:15:38.707Z,97753.53
2022-11-20T03:18:08.574Z,97748.38
2022-11-20T03:20:37.179Z,97748.50
2022-11-20T03:23:05.658Z,97749.31
2022-11-20T03:25:34.113Z,97744.84
2022-11-20T03:28:02.439Z,97744.03
2022-11-20T03:30:31.182Z,97743.28
2022-11-20T03:32:59.477Z,97739.91
2022-11-20T03:35:29.295Z,97747.78
2022-11-20T03:37:57.671Z,97742.59
2022-11-20T03:40:26.014Z,97732.63
2022-11-20T03:42:54.373Z,97738.31
2022-11-20T03:45:23.000Z,97731.72
2022-11-20T03:47:51.404Z,97741.56
2022-11-20T03:50:19.831Z,97741.69
2022-11-20T03:52:49.553Z,97735.81
2022-11-20T03:55:17.959Z,97736.56
2022-11-20T03:57:46.263Z,97737.44
2022-11-20T04:00:16.449Z,97738.19
2022-11-20T04:02:44.819Z,97735.63
2022-11-20T04:05:13.178Z,97734.88
2022-11-20T04:07:41.657Z,97737.47
2022-11-20T04:10:11.665Z,97740.88
2022-11-20T04:12:39.956Z,97739.81
2022-11-20T04:15:09.286Z,97740.72
2022-11-20T04:17:37.545Z,97734.03
2022-11-20T04:20:07.332Z,97736.47
2022-11-20T04:22:35.605Z,97733.03
2022-11-20T04:25:04.386Z,97727.94
2022-11-20T04:27:34.196Z,97724.47
2022-11-20T04:30:02.476Z,97730.41
2022-11-20T04:32:31.007Z,97731.59
2022-11-20T04:34:59.400Z,97729.81
2022-11-20T04:37:27.845Z,97728.91
2022-11-20T04:39:56.338Z,97724.69
2022-11-20T04:42:30.952Z,97727.84
2022-11-20T04:45:00.920Z,97734.09
2022-11-20T04:47:29.387Z,97724.81
2022-11-20T04:49:57.789Z,97731.53
2022-11-20T04:52:26.173Z,97725.69
2022-11-20T04:54:54.821Z,97717.28
2022-11-20T04:57:23.291Z,97727.25
2022-11-20T04:59:51.592Z,97727.34
2022-11-20T05:02:21.946Z,97729.75
2022-11-20T05:04:50.220Z,97723.16
2022-11-20T05:07:18.960Z,97727.31
2022-11-20T05:09:47.300Z,97726.59
2022-11-20T05:12:15.706Z,97720.59
2022-11-20T05:14:44.171Z,97723.25
2022-11-20T05:17:13.566Z,97719.94
2022-11-20T05:19:43.360Z,97726.72
2022-11-20T05:22:11.583Z,97714.81
2022-11-20T05:24:40.020Z,97726.09
2022-11-20T05:27:08.314Z,97728.72
2022-11-20T05:29:36.882Z,97720.84
2022-11-20T05:32:06.712Z,97724.94
2022-11-20T05:34:35.272Z,97726.59
2022-11-20T05:37:05.143Z,97726.22
2022-11-20T05:39:33.611Z,97727.44
2022-11-20T05:42:19.587Z,97723.84
2022-11-20T05:44:48.177Z,97722.50
2022-11-20T05:47:16.404Z,97719.63
2022-11-20T05:49:44.930Z,97723.88
2022-11-20T05:52:14.583Z,97718.22
2022-11-20T05:54:42.850Z,97726.59
2022-11-20T05:57:11.540Z,97722.25
2022-11-20T05:59:39.853Z,97722.44
2022-11-20T06:02:08.330Z,97727.56
2022-11-20T06:04:36.591Z,97724.22
2022-11-20T06:07:06.527Z,97718.88
2022-11-20T06:09:36.394Z,97722.19
2022-11-20T06:12:05.284Z,97721.50
2022-11-20T06:14:33.698Z,97722.19
2022-11-20T06:17:02.305Z,97718.88
2022-11-20T06:19:30.630Z,97707.72
2022-11-20T06:21:59.002Z,97715.41
2022-11-20T06:24:27.505Z,97717.91
2022-11-20T06:26:57.512Z,97717.06
2022-11-20T06:29:28.865Z,97712.81
2022-11-20T06:32:00.973Z,97716.94
2022-11-20T06:34:29.373Z,97715.16
2022-11-20T06:36:57.638Z,97712.53
2022-11-20T06:39:25.964Z,97704.16
2022-11-20T06:41:58.616Z,97702.38
2022-11-20T06:44:28.848Z,97713.50
2022-11-20T06:46:57.201Z,97717.72
2022-11-20T06:49:26.231Z,97717.66
2022-11-20T06:51:54.630Z,97720.34
2022-11-20T06:54:22.941Z,97716.06
2022-11-20T06:56:51.533Z,97713.44
2022-11-20T06:59:20.513Z,97716.06
2022-11-20T07:01:50.383Z,97721.94
2022-11-20T07:04:18.701Z,97719.31
2022-11-20T07:06:46.940Z,97721.94
2022-11-20T07:09:15.573Z,97724.31
2022-11-20T07:11:43.874Z,97728.50
2022-11-20T07:14:12.350Z,97726.84
2022-11-20T07:16:40.609Z,97720.69
2022-11-20T07:19:10.360Z,97726.69
2022-11-20T07:21:38.815Z,97723.16
2022-11-20T07:24:07.520Z,97720.38
2022-11-20T07:26:36.495Z,97724.59
2022-11-20T07:29:04.930Z,97730.66
2022-11-20T07:31:33.567Z,97731.50
2022-11-20T07:34:01.937Z,97730.47
2022-11-20T07:36:31.600Z,97729.53
2022-11-20T07:39:00.156Z,97735.38
2022-11-20T07:41:28.615Z,97737.16
2022-11-20T07:43:57.083Z,97744.69
2022-11-20T07:46:25.557Z,97735.97
2022-11-20T07:48:54.552Z,97738.63
2022-11-20T07:51:23.308Z,97737.41
2022-11-20T07:53:54.610Z,97740.69
2022-11-20T07:56:23.024Z,97743.44
2022-11-20T07:58:51.702Z,97743.56
2022-11-20T08:01:20.269Z,97743.53
2022-11-20T08:03:48.869Z,97742.31
2022-11-20T08:06:17.437Z,97748.19
2022-11-20T08:08:45.989Z,97751.63
2022-11-20T08:11:33.480Z,97757.59
2022-11-20T08:14:14.625Z,97747.47
2022-11-20T08:16:45.568Z,97754.13
2022-11-20T08:19:15.071Z,97754.91
2022-11-20T08:21:43.791Z,97756.38
2022-11-20T08:24:12.726Z,97754.66
2022-11-20T08:26:43.546Z,97757.47
2022-11-20T08:29:12.137Z,97758.09
2022-11-20T08:31:40.677Z,97759.53
2022-11-20T08:34:10.283Z,97762.78
2022-11-20T08:36:39.925Z,97766.13
2022-11-20T08:39:08.375Z,97770.41
2022-11-20T08:41:37.726Z,97760.03
2022-11-20T08:44:09.689Z,97759.19
2022-11-20T08:46:42.070Z,97765.03
2022-11-20T08:49:12.981Z,97769.84
2022-11-20T08:51:42.157Z,97771.56
2022-11-20T08:54:13.451Z,97763.78
2022-11-20T08:56:41.957Z,97768.72
2022-11-20T08:59:36.912Z,97763.31
2022-11-20T09:02:00.485Z,97768.44
2022-11-20T09:04:28.889Z,97779.53
2022-11-20T09:06:57.482Z,97768.97
2022-11-20T09:09:26.028Z,97775.63
2022-11-20T09:11:54.748Z,97768.81
2022-11-20T09:14:25.724Z,97777.69
2022-11-20T09:16:54.225Z,97775.00
2022-11-20T09:19:37.748Z,97775.13
2022-11-20T09:22:06.315Z,97780.91
2022-11-20T09:24:34.986Z,97780.41
2022-11-20T09:27:07.497Z,97780.50
2022-11-20T09:29:37.513Z,97788.19
2022-11-20T09:32:07.206Z,97788.31
2022-11-20T09:34:35.681Z,97781.28
2022-11-20T09:37:06.471Z,97797.38
2022-11-20T09:39:39.721Z,97794.94
2022-11-20T09:42:36.404Z,97793.94
2022-11-20T09:45:21.211Z,97805.94
2022-11-20T09:48:06.908Z,97804.41
2022-11-20T09:50:42.803Z,97808.72
2022-11-20T09:53:22.695Z,97805.38
2022-11-20T09:55:51.274Z,97812.06
2022-11-20T09:58:33.050Z,97799.84
2022-11-20T10:01:12.846Z,97809.19
2022-11-20T10:03:53.891Z,97810.84
2022-11-20T10:06:31.182Z,97795.97
2022-11-20T10:09:14.409Z,97807.31
2022-11-20T10:11:53.255Z,97810.16
2022-11-20T10:14:36.748Z,97809.66
2022-11-20T10:17:20.678Z,97819.13
2022-11-20T10:20:04.904Z,97812.59
2022-11-20T10:22:49.442Z,97809.06
2022-11-20T10:25:20.471Z,97816.69
2022-11-20T10:28:09.833Z,97812.38
2022-11-20T10:30:42.484Z,97812.25
2022-11-20T10:33:20.466Z,97813.38
2022-11-20T10:35:55.451Z,97820.41
2022-11-20T10:38:28.536Z,97839.00
2022-11-20T10:41:21.018Z,97822.91
2022-11-20T10:43:54.248Z,97815.09
2022-11-20T10:46:24.730Z,97817.09
2022-11-20T10:48:54.532Z,97819.75
2022-11-20T10:51:37.955Z,97825.91
2022-11-20T10:54:23.650Z,97831.03
2022-11-20T10:56:55.252Z,97812.47
2022-11-20T10:59:44.345Z,97815.78
2022-11-20T11:02:20.038Z,97804.78
2022-11-20T11:04:52.647Z,97799.75
2022-11-20T11:07:26.754Z,97801.53
2022-11-20T11:09:58.334Z,97800.53
2022-11-20T11:12:30.264Z,97802.94
2022-11-20T11:14:59.962Z,97799.50
2022-11-20T11:17:31.846Z,97800.16
2022-11-20T11:20:08.996Z,97799.25
2022-11-20T11:22:47.596Z,97777.59
2022-11-20T11:25:46.835Z,97790.66
2022-11-20T11:28:30.972Z,97773.75
2022-11-20T11:31:00.131Z,97775.38
2022-11-20T11:33:30.863Z,97772.19
2022-11-20T11:36:04.241Z,97759.50
2022-11-20T11:38:38.116Z,97763.13
2022-11-20T11:41:08.538Z,97748.25
2022-11-20T11:43:56.946Z,97738.19
2022-11-20T11:46:33.782Z,97737.72
2022-11-20T11:49:11.349Z,97741.28
2022-11-20T11:51:55.154Z,97731.09
2022-11-20T11:54:29.008Z,97730.09
2022-11-20T11:57:01.263Z,97726.16
2022-11-20T11:59:44.000Z,97717.72
2022-11-20T12:02:35.295Z,97719.38
2022-11-20T12:05:17.910Z,97711.97
2022-11-20T12:07:50.409Z,97728.81
2022-11-20T12:10:25.179Z,97723.78
2022-11-20T12:13:06.623Z,97719.91
2022-11-20T12:15:36.930Z,97717.81
2022-11-20T12:18:17.025Z,97712.03
2022-11-20T12:20:57.648Z,97712.13
2022-11-20T12:23:32.711Z,97712.63
2022-11-20T12:26:03.470Z,97702.00
2022-11-20T12:28:54.132Z,97698.75
2022-11-20T12:31:51.978Z,97699.00
2022-11-20T12:34:37.808Z,97693.41
2022-11-20T12:37:16.703Z,97698.13
2022-11-20T12:39:51.902Z,97693.34
2022-11-20T12:42:55.349Z,97689.50
2022-11-20T12:45:56.719Z,97687.69
2022-11-20T12:48:58.714Z,97696.34
2022-11-20T12:51:53.659Z,97697.81
2022-11-20T12:54:56.593Z,97696.00
2022-11-20T12:57:33.603Z,97698.31
2022-11-20T13:00:14.983Z,97709.63
2022-11-20T13:03:20.303Z,97695.53
2022-11-20T13:05:58.328Z,97699.50
2022-11-20T13:08:29.412Z,97692.59
2022-11-20T13:11:09.517Z,97699.31
2022-11-20T13:13:50.337Z,97705.28
2022-11-20T13:16:24.795Z,97695.72
2022-11-20T13:18:53.420Z,97714.06
2022-11-20T13:21:25.087Z,97699.47
2022-11-20T13:23:53.417Z,97697.66
2022-11-20T13:26:25.304Z,97695.69
2022-11-20T13:29:06.955Z,97693.53
2022-11-20T13:31:37.459Z,97688.22
2022-11-20T13:34:08.518Z,97679.66
2022-11-20T13:36:37.623Z,97674.44
2022-11-20T13:39:06.220Z,97666.91
2022-11-20T13:41:40.509Z,97658.97
2022-11-20T13:44:16.800Z,97664.66
2022-11-20T13:46:47.415Z,97663.94
2022-11-20T13:49:25.511Z,97666.34
2022-11-20T13:52:04.913Z,97663.09
2022-11-20T13:55:02.821Z,97672.22
2022-11-20T13:57:55.201Z,97657.28
2022-11-20T14:00:26.018Z,97673.28
2022-11-20T14:03:17.978Z,97667.53
2022-11-20T14:05:53.931Z,97676.56
2022-11-20T14:08:34.748Z,97680.41
2022-11-20T14:11:14.035Z,97667.22
2022-11-20T14:13:58.758Z,97678.41
2022-11-20T14:16:30.660Z,97668.53
2022-11-20T14:22:25.021Z,97672.78
2022-11-20T14:25:07.532Z,97671.75
2022-11-20T14:27:39.677Z,97671.03
2022-11-20T14:30:17.285Z,97682.44
2022-11-20T14:32:47.416Z,97677.78
2022-11-20T14:35:23.906Z,97678.56
2022-11-20T14:37:52.913Z,97677.50
2022-11-20T14:40:30.739Z,97673.28
2022-11-20T14:43:01.181Z,97663.81
2022-11-20T14:45:31.380Z,97659.00
2022-11-20T14:48:00.767Z,97662.38
2022-11-20T14:50:31.345Z,97650.41
2022-11-20T14:53:01.635Z,97658.31
2022-11-20T14:55:33.671Z,97649.00
2022-11-20T14:58:05.360Z,97646.69
2022-11-20T15:00:38.262Z,97639.91
2022-11-20T15:03:18.173Z,97635.06
2022-11-20T15:05:49.726Z,97632.59
2022-11-20T15:08:19.415Z,97623.28
2022-11-20T15:10:53.006Z,97641.38
2022-11-20T15:13:32.525Z,97619.94
2022-11-20T15:16:04.757Z,97618.53
2022-11-20T15:18:38.893Z,97616.63
2022-11-20T15:21:15.174Z,97613.22
2022-11-20T15:23:43.861Z,97607.66
2022-11-20T15:26:19.652Z,97615.53
2022-11-20T15:28:51.218Z,97619.66
2022-11-20T15:31:24.746Z,97614.03
2022-11-20T15:33:53.326Z,97611.59
2022-11-20T15:36:21.727Z,97617.72
2022-11-20T15:38:50.593Z,97622.03
2022-11-20T15:41:19.300Z,97620.53
2022-11-20T15:43:47.985Z,97603.31
2022-11-20T15:46:18.378Z,97606.19
2022-11-20T15:48:53.902Z,97608.66
2022-11-20T15:51:29.570Z,97601.97
2022-11-20T15:53:59.140Z,97614.19
2022-11-20T15:56:28.071Z,97604.25
2022-11-20T15:58:56.385Z,97596.94
2022-11-20T16:01:25.051Z,97603.03
2022-11-20T16:03:54.933Z,97598.03
2022-11-20T16:06:23.571Z,97585.88
2022-11-20T16:08:52.293Z,97592.63
2022-11-20T16:11:20.986Z,97596.03
2022-11-20T16:14:06.441Z,97587.41
2022-11-20T16:16:36.660Z,97590.22
2022-11-20T16:19:07.185Z,97587.03
2022-11-20T16:21:35.818Z,97589.44
2022-11-20T16:24:07.442Z,97591.44
2022-11-20T16:26:36.139Z,97589.84
2022-11-20T16:29:06.500Z,97583.03
2022-11-20T16:31:35.938Z,97589.47
2022-11-20T16:34:12.447Z,97581.53
2022-11-20T16:36:42.941Z,97583.34
2022-11-20T16:39:11.896Z,97579.13
2022-11-20T16:41:40.428Z,97574.91
2022-11-20T16:44:12.462Z,97574.44
2022-11-20T16:46:41.794Z,97576.63
2022-11-20T16:49:15.168Z,97573.31
2022-11-20T16:51:43.779Z,97569.22
2022-11-20T16:54:16.338Z,97570.88
2022-11-20T16:56:47.914Z,97575.41
2022-11-20T16:59:16.426Z,97582.00
2022-11-20T17:01:44.971Z,97570.16
2022-11-20T17:04:14.874Z,97561.47
2022-11-20T17:06:45.407Z,97564.31
2022-11-20T17:09:14.018Z,97558.13
2022-11-20T17:11:42.806Z,97552.19
2022-11-20T17:14:13.256Z,97554.75
2022-11-20T17:16:43.131Z,97559.09
2022-11-20T17:19:11.558Z,97550.53
2022-11-20T17:21:41.479Z,97542.16
2022-11-20T17:24:12.523Z,97545.53
2022-11-20T17:26:43.351Z,97541.09
2022-11-20T17:29:14.426Z,97548.09
2022-11-20T17:31:44.129Z,97548.16
2022-11-20T17:34:16.221Z,97542.06
2022-11-20T17:36:46.581Z,97549.69
2022-11-20T17:39:16.597Z,97536.19
2022-11-20T17:42:06.035Z,97543.28
2022-11-20T17:44:35.173Z,97534.50
2022-11-20T17:47:03.735Z,97534.66
2022-11-20T17:49:32.041Z,97536.78
2022-11-20T17:52:01.816Z,97534.06
2022-11-20T17:54:30.092Z,97530.66
2022-11-20T17:57:16.395Z,97535.88
2022-11-20T17:59:44.743Z,97520.19
2022-11-20T18:02:13.074Z,97521.19
2022-11-20T18:04:41.438Z,97520.94
2022-11-20T18:07:11.128Z,97509.78
2022-11-20T18:09:39.539Z,97506.75
2022-11-20T18:12:08.410Z,97501.69
2022-11-20T18:14:37.141Z,97504.09
2022-11-20T18:17:08.784Z,97501.69
2022-11-20T18:19:47.744Z,97504.72
2022-11-20T18:22:25.323Z,97502.38
2022-11-20T18:24:53.886Z,97491.91
2022-11-20T18:27:23.897Z,97500.72
2022-11-20T18:29:52.727Z,97494.75
2022-11-20T18:32:22.126Z,97493.03
2022-11-20T18:34:51.433Z,97474.34
2022-11-20T18:37:20.836Z,97468.44
2022-11-20T18:39:50.624Z,97475.38
2022-11-20T18:42:41.979Z,97468.19
2022-11-20T18:45:10.960Z,97475.84
2022-11-20T18:47:40.210Z,97461.81
2022-11-20T18:50:10.843Z,97467.69
2022-11-20T18:52:44.525Z,97478.69
2022-11-20T18:55:15.201Z,97470.94
2022-11-20T18:57:43.930Z,97481.88
2022-11-20T19:00:15.020Z,97472.91
2022-11-20T19:02:43.981Z,97478.69
2022-11-20T19:05:13.884Z,97475.66
2022-11-20T19:07:42.838Z,97503.47
2022-11-20T19:10:12.171Z,97465.22
2022-11-20T19:12:42.296Z,97464.75
2022-11-20T19:15:12.033Z,97469.19
2022-11-20T19:17:40.769Z,97461.47
2022-11-20T19:20:10.480Z,97468.44
2022-11-20T19:22:39.039Z,97459.88
2022-11-20T19:25:09.078Z,97467.31
2022-11-20T19:27:37.440Z,97459.38
2022-11-20T19:30:08.881Z,97461.09
2022-11-20T19:32:37.221Z,97460.28
2022-11-20T19:35:06.704Z,97461.38
2022-11-20T19:37:35.731Z,97446.16
2022-11-20T19:40:05.338Z,97449.63
2022-11-20T19:42:33.916Z,97453.00
2022-11-20T19:45:02.310Z,97451.00
2022-11-20T19:48:00.666Z,97442.84
2022-11-20T19:50:21.257Z,97441.03
2022-11-20T19:52:52.007Z,97437.72
2022-11-20T19:55:24.310Z,97440.34
2022-11-20T19:57:52.624Z,97439.69
2022-11-20T20:00:28.133Z,97443.88
2022-11-20T20:03:02.288Z,97446.72
2022-11-20T20:05:30.747Z,97444.16
2022-11-20T20:07:59.270Z,97431.50
2022-11-20T20:10:28.584Z,97433.31
2022-11-20T20:12:57.102Z,97436.84
2022-11-20T20:15:25.769Z,97426.53
2022-11-20T20:17:54.497Z,97444.25
2022-11-20T20:20:25.432Z,97433.41
2022-11-20T20:22:53.724Z,97437.97
2022-11-20T20:25:22.144Z,97434.56
2022-11-20T20:27:50.555Z,97437.47
2022-11-20T20:30:18.929Z,97436.31
2022-11-20T20:32:50.713Z,97423.50
2022-11-20T20:35:23.168Z,97450.75
2022-11-20T20:37:51.569Z,97444.34
2022-11-20T20:40:19.981Z,97432.72
2022-11-20T20:42:48.295Z,97436.91
2022-11-20T20:45:15.745Z,97447.38
2022-11-20T20:47:44.214Z,97439.75
2022-11-20T20:50:13.706Z,97442.31
2022-11-20T20:52:43.540Z,97432.75
2022-11-20T20:55:12.369Z,97451.59
2022-11-20T20:57:41.835Z,97443.16
2022-11-20T21:00:11.269Z,97442.81
2022-11-20T21:02:39.705Z,97443.28
2022-11-20T21:05:08.966Z,97445.38
2022-11-20T21:07:58.209Z,97458.00
2022-11-20T21:10:28.069Z,97454.91
2022-11-20T21:12:56.308Z,97455.84
2022-11-20T21:15:24.811Z,97450.66
2022-11-20T21:17:53.090Z,97454.94
2022-11-20T21:20:39.171Z,97460.16
2022-11-20T21:23:11.221Z,97475.41
2022-11-20T21:25:41.337Z,97461.66
2022-11-20T21:28:13.165Z,97455.16
2022-11-20T21:30:45.542Z,97449.09
2022-11-20T21:33:14.134Z,97458.50
2022-11-20T21:35:42.582Z,97447.69
2022-11-20T21:38:10.903Z,97450.25
2022-11-20T21:40:40.680Z,97447.06
2022-11-20T21:43:09.075Z,97439.41
2022-11-20T21:45:37.590Z,97440.09
2022-11-20T21:48:07.044Z,97453.34
2022-11-20T21:50:36.311Z,97446.38
2022-11-20T21:53:04.612Z,97446.28
2022-11-20T21:55:33.164Z,97448.09
2022-11-20T21:58:02.836Z,97451.41
2022-11-20T22:00:31.452Z,97437.59
2022-11-20T22:03:00.084Z,97454.75
2022-11-20T22:05:28.578Z,97443.69
2022-11-20T22:07:57.039Z,97430.94
2022-11-20T22:10:25.775Z,97444.56
2022-11-20T22:13:15.569Z,97455.06
2022-11-20T22:15:59.727Z,97467.78
2022-11-20T22:18:28.991Z,97457.47
2022-11-20T22:20:57.364Z,97465.47
2022-11-20T22:23:25.889Z,97468.13
2022-11-20T22:25:54.200Z,97460.56
2022-11-20T22:28:22.728Z,97457.69
2022-11-20T22:30:52.439Z,97470.34
2022-11-20T22:33:20.811Z,97472.78
2022-11-20T22:35:49.271Z,97477.09
2022-11-20T22:38:17.707Z,97482.88
2022-11-20T22:40:46.788Z,97471.88
2022-11-20T22:43:16.148Z,97475.34
2022-11-20T22:45:45.783Z,97466.59
2022-11-20T22:48:15.778Z,97467.69
2022-11-20T22:50:44.200Z,97461.03
2022-11-20T22:53:12.557Z,97471.41
2022-11-20T22:55:41.485Z,97460.88
2022-11-20T22:58:09.783Z,97473.50
2022-11-20T23:00:38.100Z,97478.94
2022-11-20T23:03:07.165Z,97463.53
2022-11-20T23:05:36.957Z,97477.13
2022-11-20T23:08:05.750Z,97471.00
2022-11-20T23:10:34.073Z,97469.22
2022-11-20T23:13:02.417Z,97464.09
2022-11-20T23:15:30.709Z,97457.19
2022-11-20T23:17:59.044Z,97464.84
2022-11-20T23:20:27.390Z,97457.06
2022-11-20T23:22:57.250Z,97463.13
2022-11-20T23:25:25.521Z,97470.47
2022-11-20T23:27:55.177Z,97473.16
2022-11-20T23:30:23.798Z,97467.16
2022-11-20T23:32:52.136Z,97461.22
2022-11-20T23:35:20.469Z,97453.53
2022-11-20T23:37:48.854Z,97458.72
2022-11-20T23:40:18.784Z,97460.38
2022-11-20T23:43:01.132Z,97468.41
2022-11-20T23:45:29.422Z,97462.28
2022-11-20T23:47:58.011Z,97462.28
2022-11-20T23:50:26.323Z,97466.72
2022-11-20T23:52:54.773Z,97464.94
2022-11-20T23:55:24.589Z,97474.47
2022-11-20T23:57:53.150Z,97474.34
